Time;durP1;ratioP1;P1;durP2;ratioP2;P2;SDS_P1;SDS_P2;PMS_P1;PMS_P2;Temp;Humidity;BMP_temperature;BMP_pressure;BME280_temperature;BME280_humidity;BME280_pressure;Samples;Min_cycle;Max_cycle;Signal;HPM_P1;HPM_P2
2021/04/22 00:01:07;;;;;;;18.47;11.03;;;12.70;65.40;;;;;;5081419;28;20291;-70
2021/04/22 00:03:33;;;;;;;15.27;10.50;;;12.70;65.50;;;;;;5085275;28;20307;-70
2021/04/22 00:06:00;;;;;;;16.43;10.27;;;12.70;65.70;;;;;;5086394;28;20226;-69
2021/04/22 00:08:26;;;;;;;17.93;12.10;;;12.60;65.80;;;;;;5082854;28;20278;-69
2021/04/22 00:10:54;;;;;;;16.10;11.30;;;12.60;66.20;;;;;;5076035;28;20311;-69
2021/04/22 00:13:23;;;;;;;15.23;10.93;;;12.60;66.60;;;;;;5082622;28;20650;-70
2021/04/22 00:15:51;;;;;;;17.63;10.57;;;12.60;67.00;;;;;;5082735;28;20669;-69
2021/04/22 00:18:18;;;;;;;17.23;11.67;;;12.50;67.30;;;;;;5090038;28;20209;-70
2021/04/22 00:20:44;;;;;;;21.40;12.13;;;12.50;67.90;;;;;;5083060;28;20207;-69
2021/04/22 00:23:12;;;;;;;18.47;12.27;;;12.40;68.50;;;;;;5087277;28;20207;-69
2021/04/22 00:25:41;;;;;;;19.23;12.30;;;12.40;69.20;;;;;;5089851;28;20291;-70
2021/04/22 00:28:08;;;;;;;16.87;12.50;;;12.40;69.80;;;;;;5083796;28;20315;-70
2021/04/22 00:30:35;;;;;;;17.50;12.17;;;12.30;70.20;;;;;;5084377;28;20263;-71
2021/04/22 00:33:02;;;;;;;18.17;11.93;;;12.30;70.90;;;;;;5088452;28;20296;-70
2021/04/22 00:35:29;;;;;;;16.37;12.27;;;12.30;71.50;;;;;;5088901;28;20208;-70
2021/04/22 00:37:55;;;;;;;19.07;12.50;;;12.20;71.90;;;;;;5093842;28;20197;-70
2021/04/22 00:40:24;;;;;;;20.03;12.53;;;12.20;72.50;;;;;;5090123;28;20645;-71
2021/04/22 00:42:51;;;;;;;19.03;12.57;;;12.20;73.00;;;;;;5088527;28;20605;-71
2021/04/22 00:45:19;;;;;;;19.30;12.00;;;12.20;73.60;;;;;;5080439;28;20209;-69
2021/04/22 00:47:47;;;;;;;20.60;12.03;;;12.10;74.30;;;;;;5087597;28;20241;-70
2021/04/22 00:50:18;;;;;;;18.63;11.87;;;12.10;75.10;;;;;;5083422;28;20205;-70
2021/04/22 00:52:45;;;;;;;17.50;12.50;;;12.00;75.80;;;;;;5097180;28;20226;-69
2021/04/22 00:55:12;;;;;;;15.53;12.10;;;12.00;76.70;;;;;;5091864;28;20292;-70
2021/04/22 00:57:39;;;;;;;20.20;12.30;;;11.90;77.50;;;;;;5079669;28;20287;-70
2021/04/22 01:00:08;;;;;;;15.83;11.60;;;11.90;78.50;;;;;;5085408;28;20641;-71
2021/04/22 01:02:36;;;;;;;16.87;11.00;;;11.90;79.50;;;;;;5089911;28;20287;-70
2021/04/22 01:05:07;;;;;;;17.20;10.77;;;11.80;80.50;;;;;;5082101;28;20615;-70
2021/04/22 01:07:34;;;;;;;16.63;10.03;;;11.80;81.80;;;;;;5088314;28;20288;-70
2021/04/22 01:10:01;;;;;;;14.23;10.17;;;11.80;83.40;;;;;;5088510;28;20232;-69
2021/04/22 01:12:27;;;;;;;14.33;9.80;;;11.80;84.80;;;;;;5086085;28;20244;-70
2021/04/22 01:14:53;;;;;;;14.73;9.90;;;11.70;86.30;;;;;;5084850;28;20294;-70
2021/04/22 01:17:20;;;;;;;11.47;8.90;;;11.70;87.80;;;;;;5083847;28;20216;-70
2021/04/22 01:19:47;;;;;;;10.63;8.63;;;11.70;89.40;;;;;;5092363;28;20649;-70
2021/04/22 01:22:14;;;;;;;13.20;9.40;;;11.60;90.30;;;;;;5079836;28;20215;-71
2021/04/22 01:24:41;;;;;;;13.83;8.77;;;11.60;90.80;;;;;;5085605;28;20215;-70
2021/04/22 01:27:08;;;;;;;15.37;8.30;;;11.60;91.10;;;;;;5081077;28;20340;-71
2021/04/22 01:29:34;;;;;;;9.97;8.33;;;11.60;91.30;;;;;;5087128;28;20237;-69
2021/04/22 01:32:01;;;;;;;10.30;7.73;;;11.50;91.30;;;;;;5081395;28;20213;-70
2021/04/22 01:34:27;;;;;;;13.60;8.87;;;11.50;91.70;;;;;;5081397;28;20209;-71
2021/04/22 01:36:54;;;;;;;10.90;8.63;;;11.50;92.00;;;;;;5074495;28;20292;-69
2021/04/22 01:39:23;;;;;;;12.83;9.40;;;11.50;92.50;;;;;;5084981;28;20201;-69
2021/04/22 01:41:50;;;;;;;12.37;8.77;;;11.40;92.70;;;;;;5090687;28;20245;-68
2021/04/22 01:44:16;;;;;;;11.87;7.60;;;11.40;93.10;;;;;;5085804;28;20205;-70
2021/04/22 01:50:07;;;;;;;10.03;6.97;;;11.30;93.00;;;;;;5074892;28;20216;-70
2021/04/22 01:52:33;;;;;;;8.73;6.93;;;11.20;92.60;;;;;;5086193;28;20292;-70
2021/04/22 01:55:01;;;;;;;10.43;7.30;;;11.10;92.60;;;;;;5083128;28;20200;-69
2021/04/22 01:57:27;;;;;;;8.57;6.73;;;11.00;92.80;;;;;;5087147;28;20646;-69
2021/04/22 01:59:54;;;;;;;11.00;7.27;;;10.90;93.10;;;;;;5077350;28;20251;-69
2021/04/22 02:02:20;;;;;;;11.27;7.37;;;10.80;93.40;;;;;;5087120;28;20312;-70
2021/04/22 02:04:47;;;;;;;10.67;7.60;;;10.70;93.80;;;;;;5077901;28;20259;-69
2021/04/22 02:07:14;;;;;;;10.07;7.30;;;10.70;94.20;;;;;;5080355;28;20688;-69
2021/04/22 02:09:40;;;;;;;9.17;6.53;;;10.70;94.60;;;;;;5089813;28;20227;-70
2021/04/22 02:12:08;;;;;;;8.43;6.97;;;10.70;94.90;;;;;;5080021;28;20206;-70
2021/04/22 02:14:35;;;;;;;8.90;7.20;;;10.70;95.50;;;;;;5083262;28;20251;-70
2021/04/22 02:17:02;;;;;;;9.37;7.07;;;10.60;95.90;;;;;;5085535;28;20236;-71
2021/04/22 02:19:28;;;;;;;10.57;7.93;;;10.60;96.30;;;;;;5089271;28;20816;-69
2021/04/22 02:21:55;;;;;;;9.70;7.10;;;10.50;96.60;;;;;;5091310;28;20203;-69
2021/04/22 02:24:21;;;;;;;8.73;7.00;;;10.50;97.10;;;;;;5082468;28;20646;-69
2021/04/22 02:26:47;;;;;;;11.33;7.60;;;10.50;97.50;;;;;;5090175;28;20208;-69
2021/04/22 02:29:15;;;;;;;9.83;7.57;;;10.40;97.70;;;;;;5084418;28;20336;-70
2021/04/22 02:31:41;;;;;;;12.60;7.47;;;10.40;98.20;;;;;;5077568;28;20209;-71
2021/04/22 02:34:08;;;;;;;10.20;7.20;;;10.40;98.60;;;;;;5086869;28;20205;-71
2021/04/22 02:36:34;;;;;;;10.40;7.77;;;10.40;98.80;;;;;;5090627;28;20206;-70
2021/04/22 02:39:00;;;;;;;8.07;6.80;;;10.30;99.20;;;;;;5084966;28;20208;-69
2021/04/22 02:41:27;;;;;;;8.13;6.37;;;10.30;99.60;;;;;;5088262;28;20201;-68
2021/04/22 02:43:53;;;;;;;9.50;6.70;;;10.20;99.50;;;;;;5081762;28;20201;-70
2021/04/22 02:46:20;;;;;;;11.17;7.40;;;10.10;99.80;;;;;;5085957;28;20221;-70
2021/04/22 02:48:47;;;;;;;9.93;6.40;;;10.10;99.90;;;;;;5085849;28;20221;-69
2021/04/22 02:51:14;;;;;;;7.97;6.30;;;10.10;99.90;;;;;;5081494;28;20202;-69
2021/04/22 02:53:40;;;;;;;11.40;6.57;;;10.00;99.90;;;;;;5080757;28;20296;-69
2021/04/22 02:56:07;;;;;;;10.03;6.27;;;9.90;99.90;;;;;;5083610;28;20288;-69
2021/04/22 02:58:33;;;;;;;7.77;6.27;;;9.90;99.90;;;;;;5072764;28;20292;-70
2021/04/22 03:01:00;;;;;;;9.33;6.27;;;10.00;99.90;;;;;;5074430;28;20205;-69
2021/04/22 03:03:27;;;;;;;8.80;6.97;;;10.00;99.90;;;;;;5080414;28;20296;-70
2021/04/22 03:05:55;;;;;;;11.10;6.60;;;9.90;99.90;;;;;;5085674;28;20208;-70
2021/04/22 03:08:21;;;;;;;11.57;7.03;;;10.00;99.90;;;;;;5089117;28;20704;-69
2021/04/22 03:10:48;;;;;;;10.10;6.83;;;9.90;99.90;;;;;;5078076;28;20218;-70
2021/04/22 03:13:14;;;;;;;10.33;7.60;;;9.90;99.90;;;;;;5083629;28;20654;-70
2021/04/22 03:15:41;;;;;;;8.83;7.07;;;9.90;99.90;;;;;;5091816;28;20211;-69
2021/04/22 03:18:08;;;;;;;11.90;6.73;;;10.00;99.90;;;;;;5078721;28;20219;-69
2021/04/22 03:20:36;;;;;;;8.10;6.47;;;9.90;99.90;;;;;;5077862;28;20660;-69
2021/04/22 03:23:02;;;;;;;9.43;6.80;;;9.90;99.90;;;;;;5081279;28;20584;-69
2021/04/22 03:25:29;;;;;;;10.50;6.20;;;9.90;99.90;;;;;;5085672;28;20200;-70
2021/04/22 03:27:56;;;;;;;8.40;5.90;;;9.90;99.90;;;;;;5087256;28;20201;-70
2021/04/22 03:30:25;;;;;;;12.97;6.50;;;9.90;99.90;;;;;;5082243;28;20248;-70
2021/04/22 03:32:52;;;;;;;7.60;5.43;;;9.80;99.90;;;;;;5085708;28;20205;-70
2021/04/22 03:35:19;;;;;;;7.97;4.87;;;9.80;99.90;;;;;;5082838;28;20201;-70
2021/04/22 03:37:46;;;;;;;11.10;4.23;;;9.70;99.90;;;;;;5076682;28;20276;-70
2021/04/22 03:40:14;;;;;;;5.17;4.07;;;9.70;99.90;;;;;;5083593;28;20228;-70
2021/04/22 03:42:41;;;;;;;7.53;4.10;;;9.60;99.90;;;;;;5085157;28;20206;-71
2021/04/22 03:45:10;;;;;;;8.13;4.17;;;9.50;99.90;;;;;;5081402;28;20216;-70
2021/04/22 03:47:37;;;;;;;7.20;3.77;;;9.50;99.90;;;;;;5078810;28;20565;-71
2021/04/22 03:50:05;;;;;;;5.57;4.10;;;9.50;99.90;;;;;;5085451;28;20266;-69
2021/04/22 03:52:31;;;;;;;5.93;3.90;;;9.50;99.90;;;;;;5085742;28;20299;-70
2021/04/22 03:54:59;;;;;;;5.87;3.60;;;9.50;99.90;;;;;;5074506;28;20269;-70
2021/04/22 03:57:25;;;;;;;5.83;4.03;;;9.40;99.90;;;;;;5089017;28;20200;-70
2021/04/22 03:59:52;;;;;;;5.60;3.43;;;9.30;99.90;;;;;;5078646;28;20228;-69
2021/04/22 04:02:19;;;;;;;9.17;4.03;;;9.40;99.90;;;;;;5072607;28;20289;-69
2021/04/22 04:04:45;;;;;;;6.30;3.53;;;9.40;99.90;;;;;;5078448;28;20249;-70
2021/04/22 04:07:12;;;;;;;4.43;3.23;;;9.40;99.90;;;;;;5087223;28;20286;-70
2021/04/22 04:09:38;;;;;;;5.23;3.33;;;9.40;99.90;;;;;;5084085;28;20307;-69
2021/04/22 04:12:07;;;;;;;8.00;3.70;;;9.30;99.90;;;;;;5084649;28;20669;-69
2021/04/22 04:14:35;;;;;;;5.03;3.30;;;9.30;99.90;;;;;;5075986;28;20627;-70
2021/04/22 04:17:02;;;;;;;5.63;3.67;;;9.30;99.90;;;;;;5085403;28;20209;-69
2021/04/22 04:19:28;;;;;;;4.37;3.20;;;9.20;99.90;;;;;;5086347;28;20382;-70
2021/04/22 04:21:55;;;;;;;7.93;3.90;;;9.20;99.90;;;;;;5080702;28;20227;-69
2021/04/22 04:24:21;;;;;;;8.47;4.30;;;9.10;99.90;;;;;;5086071;28;20334;-71
2021/04/22 04:26:47;;;;;;;6.73;4.50;;;9.10;99.90;;;;;;5087364;28;20201;-69
2021/04/22 04:29:15;;;;;;;5.13;3.93;;;9.00;99.90;;;;;;5077446;28;20260;-70
2021/04/22 04:31:41;;;;;;;7.57;4.30;;;8.90;99.90;;;;;;5078590;28;20242;-70
2021/04/22 04:34:07;;;;;;;6.27;3.83;;;8.80;99.90;;;;;;5077511;28;20205;-70
2021/04/22 04:36:34;;;;;;;6.23;4.43;;;8.70;99.90;;;;;;5088210;28;20716;-69
2021/04/22 04:39:01;;;;;;;6.70;3.63;;;8.60;99.90;;;;;;5078562;28;20296;-69
2021/04/22 04:41:27;;;;;;;8.80;4.20;;;8.50;99.90;;;;;;5081226;28;20233;-69
2021/04/22 04:43:54;;;;;;;10.27;3.30;;;8.40;99.90;;;;;;5077038;28;20201;-68
2021/04/22 04:46:21;;;;;;;6.40;3.20;;;8.20;99.90;;;;;;5088855;28;20203;-71
2021/04/22 04:48:48;;;;;;;5.73;3.40;;;8.10;99.90;;;;;;5082507;28;20307;-68
2021/04/22 04:51:15;;;;;;;5.63;3.10;;;8.00;99.90;;;;;;5085735;28;20236;-70
2021/04/22 04:53:41;;;;;;;4.87;3.27;;;7.90;99.90;;;;;;5076677;28;20207;-70
2021/04/22 04:56:08;;;;;;;4.50;2.70;;;7.80;99.90;;;;;;5081156;28;20212;-69
2021/04/22 04:58:34;;;;;;;6.30;3.47;;;7.80;99.90;;;;;;5080913;28;20225;-69
2021/04/22 05:01:01;;;;;;;5.30;2.60;;;7.70;99.90;;;;;;5075647;28;20207;-68
2021/04/22 05:03:28;;;;;;;6.50;3.40;;;7.70;99.90;;;;;;5080859;28;20300;-69
2021/04/22 05:05:54;;;;;;;7.40;3.03;;;7.70;99.90;;;;;;5082805;28;20575;-69
2021/04/22 05:08:21;;;;;;;5.77;3.23;;;7.70;99.90;;;;;;5091809;28;20231;-71
2021/04/22 05:10:47;;;;;;;4.23;2.77;;;7.70;99.90;;;;;;5086926;28;20295;-70
2021/04/22 05:13:14;;;;;;;5.50;3.00;;;7.60;99.90;;;;;;5079614;28;20231;-70
2021/04/22 05:15:40;;;;;;;7.23;3.37;;;7.50;99.90;;;;;;5092927;28;20277;-69
2021/04/22 05:18:06;;;;;;;4.53;2.50;;;7.60;99.90;;;;;;5093874;28;20205;-69
2021/04/22 05:20:34;;;;;;;4.77;2.63;;;7.60;99.90;;;;;;5081977;28;20258;-69
2021/04/22 05:23:00;;;;;;;7.87;2.97;;;7.60;99.90;;;;;;5077294;28;20646;-69
2021/04/22 05:25:27;;;;;;;5.30;3.07;;;7.70;99.90;;;;;;5082123;28;20296;-69
2021/04/22 05:27:53;;;;;;;7.40;3.63;;;7.70;99.90;;;;;;5088913;28;20201;-69
2021/04/22 05:30:20;;;;;;;5.30;2.37;;;7.80;99.90;;;;;;5084408;28;20697;-69
2021/04/22 05:32:47;;;;;;;5.50;2.47;;;7.90;99.90;;;;;;5075104;28;20205;-69
2021/04/22 05:35:15;;;;;;;5.60;2.87;;;7.90;99.90;;;;;;5088402;28;20205;-70
2021/04/22 05:37:43;;;;;;;3.87;2.43;;;7.90;99.90;;;;;;5084574;28;20197;-70
2021/04/22 05:40:10;;;;;;;6.43;2.70;;;7.90;99.90;;;;;;5082332;28;20235;-70
2021/04/22 05:42:37;;;;;;;9.20;3.67;;;7.90;99.90;;;;;;5084977;28;20555;-70
2021/04/22 05:45:05;;;;;;;6.73;2.67;;;8.00;99.90;;;;;;5090912;28;20232;-69
2021/04/22 05:47:31;;;;;;;6.63;2.83;;;8.00;99.90;;;;;;5091041;28;20554;-69
2021/04/22 05:49:57;;;;;;;8.47;2.73;;;8.00;99.90;;;;;;5084020;28;20248;-69
2021/04/22 05:52:24;;;;;;;5.20;3.30;;;8.10;99.90;;;;;;5086552;28;20235;-70
2021/04/22 05:54:51;;;;;;;6.50;2.87;;;8.10;99.90;;;;;;5089042;28;20201;-70
2021/04/22 05:57:17;;;;;;;5.50;3.10;;;8.10;99.90;;;;;;5089822;28;20207;-70
2021/04/22 05:59:44;;;;;;;4.57;3.10;;;8.10;99.90;;;;;;5080812;28;20284;-69
2021/04/22 06:02:10;;;;;;;8.87;4.07;;;8.20;99.90;;;;;;5078397;28;20223;-71
2021/04/22 06:04:36;;;;;;;5.83;2.90;;;8.30;99.90;;;;;;5079634;28;20238;-70
2021/04/22 06:07:03;;;;;;;6.97;3.10;;;8.40;99.90;;;;;;5084124;28;20292;-70
2021/04/22 06:09:29;;;;;;;5.83;3.40;;;8.30;99.90;;;;;;5074617;28;20317;-71
2021/04/22 06:11:57;;;;;;;8.37;4.07;;;8.30;99.90;;;;;;5081405;28;20208;-71
2021/04/22 06:14:23;;;;;;;6.60;3.07;;;8.40;99.90;;;;;;5087765;28;20644;-69
2021/04/22 06:16:50;;;;;;;7.23;2.97;;;8.40;99.90;;;;;;5087357;28;20319;-69
2021/04/22 06:19:16;;;;;;;5.57;2.50;;;8.40;99.90;;;;;;5089056;28;20295;-70
2021/04/22 06:21:43;;;;;;;5.93;2.83;;;8.50;99.90;;;;;;5084768;28;20209;-69
2021/04/22 06:24:10;;;;;;;5.13;2.60;;;8.50;99.90;;;;;;5078720;28;20243;-69
2021/04/22 06:26:37;;;;;;;6.90;3.20;;;8.60;99.90;;;;;;5086090;28;20533;-69
2021/04/22 06:29:05;;;;;;;8.23;3.43;;;8.60;99.90;;;;;;5075906;28;20233;-69
2021/04/22 06:31:32;;;;;;;5.43;2.67;;;8.60;99.90;;;;;;5073551;28;20677;-71
2021/04/22 06:33:58;;;;;;;7.43;2.90;;;8.70;99.90;;;;;;5072632;28;20201;-70
2021/04/22 06:36:26;;;;;;;7.03;3.43;;;8.70;99.90;;;;;;5086614;28;20236;-69
2021/04/22 06:38:54;;;;;;;6.37;2.93;;;8.80;99.90;;;;;;5082187;28;20695;-70
2021/04/22 06:41:21;;;;;;;7.50;3.40;;;8.90;99.90;;;;;;5083883;28;20620;-70
2021/04/22 06:43:47;;;;;;;4.57;3.50;;;9.00;99.90;;;;;;5091633;28;20228;-68
2021/04/22 06:46:16;;;;;;;9.97;3.57;;;9.20;99.90;;;;;;5094152;28;20716;-71
2021/04/22 06:48:42;;;;;;;7.17;3.27;;;9.40;99.90;;;;;;5084481;28;20229;-70
2021/04/22 06:51:08;;;;;;;6.00;3.47;;;9.60;99.90;;;;;;5076231;28;20208;-71
2021/04/22 06:53:35;;;;;;;8.67;3.30;;;9.70;99.90;;;;;;5088019;28;20658;-71
2021/04/22 06:56:03;;;;;;;9.80;2.70;;;9.90;99.90;;;;;;5085914;28;20292;-70
2021/04/22 06:58:30;;;;;;;8.10;2.40;;;10.10;99.90;;;;;;5083275;28;20213;-70
2021/04/22 07:00:56;;;;;;;6.57;3.00;;;10.10;99.90;;;;;;5081780;28;20216;-71
2021/04/22 07:03:23;;;;;;;5.93;2.50;;;10.20;99.90;;;;;;5075347;28;20254;-73
2021/04/22 07:05:50;;;;;;;7.93;2.37;;;10.30;99.90;;;;;;5090137;28;20215;-72
2021/04/22 07:08:17;;;;;;;6.13;2.73;;;10.40;99.70;;;;;;5088013;28;20254;-70
2021/04/22 07:10:44;;;;;;;7.47;2.43;;;10.50;98.90;;;;;;5084619;28;20265;-75
2021/04/22 07:13:11;;;;;;;6.23;2.30;;;10.40;97.40;;;;;;5080117;28;20647;-73
2021/04/22 07:15:38;;;;;;;9.10;2.27;;;10.40;97.20;;;;;;5082221;28;20236;-71
2021/04/22 07:18:06;;;;;;;9.53;2.43;;;10.50;97.20;;;;;;5089676;28;20291;-72
2021/04/22 07:20:33;;;;;;;4.57;2.10;;;10.50;96.60;;;;;;5087727;28;20670;-71
2021/04/22 07:23:01;;;;;;;8.60;2.30;;;10.50;95.30;;;;;;5081280;28;20227;-68
2021/04/22 07:25:32;;;;;;;5.43;2.10;;;10.60;93.20;;;;;;5091691;28;20232;-71
2021/04/22 07:28:00;;;;;;;5.57;2.30;;;10.60;91.40;;;;;;5083576;28;20239;-70
2021/04/22 07:30:26;;;;;;;6.57;2.13;;;10.60;90.30;;;;;;5076298;28;20233;-70
2021/04/22 07:32:54;;;;;;;8.67;2.43;;;10.60;86.90;;;;;;5083672;28;20212;-72
2021/04/22 07:35:20;;;;;;;7.80;2.13;;;10.60;85.40;;;;;;5077939;28;20208;-72
2021/04/22 07:37:50;;;;;;;6.20;2.67;;;10.50;79.60;;;;;;5089281;28;20300;-71
2021/04/22 07:40:19;;;;;;;7.57;2.07;;;10.50;75.90;;;;;;5075324;28;20197;-72
2021/04/22 07:42:46;;;;;;;5.37;2.63;;;10.50;74.20;;;;;;5075590;28;20252;-70
2021/04/22 07:45:14;;;;;;;4.87;2.20;;;10.50;71.70;;;;;;5079082;28;20224;-71
2021/04/22 07:47:41;;;;;;;10.43;2.27;;;10.40;70.00;;;;;;5078935;28;20236;-71
2021/04/22 07:50:09;;;;;;;7.20;2.20;;;10.40;69.50;;;;;;5085862;28;20221;-71
2021/04/22 07:52:39;;;;;;;9.97;2.40;;;10.50;67.40;;;;;;5073957;28;20292;-71
2021/04/22 07:55:08;;;;;;;6.27;2.50;;;10.50;64.80;;;;;;5085428;28;20196;-71
2021/04/22 07:57:35;;;;;;;4.77;2.20;;;10.40;63.90;;;;;;5082718;28;20209;-71
2021/04/22 08:00:03;;;;;;;7.67;2.40;;;10.40;64.50;;;;;;5080322;28;20197;-71
2021/04/22 08:02:30;;;;;;;5.33;2.30;;;10.50;65.50;;;;;;5073341;28;20658;-71
2021/04/22 08:04:56;;;;;;;7.13;2.53;;;10.50;65.60;;;;;;5078802;28;20569;-71
2021/04/22 08:07:24;;;;;;;6.57;2.30;;;10.60;65.50;;;;;;5082434;28;20236;-70
2021/04/22 08:09:50;;;;;;;9.30;2.77;;;10.80;65.70;;;;;;5081807;28;20224;-71
2021/04/22 08:12:18;;;;;;;7.67;2.40;;;11.00;65.40;;;;;;5082916;28;20239;-72
2021/04/22 08:14:44;;;;;;;8.27;2.70;;;11.00;63.40;;;;;;5081602;28;20223;-72
2021/04/22 08:17:11;;;;;;;8.20;2.33;;;11.10;62.40;;;;;;5085378;28;20207;-72
2021/04/22 08:19:38;;;;;;;7.70;2.50;;;11.10;61.10;;;;;;5087557;28;20253;-71
2021/04/22 08:22:04;;;;;;;8.17;2.10;;;11.10;61.10;;;;;;5091054;28;20240;-71
2021/04/22 08:24:33;;;;;;;9.63;2.47;;;11.20;60.50;;;;;;5081467;28;20200;-71
2021/04/22 08:27:00;;;;;;;8.67;2.30;;;11.10;59.00;;;;;;5091256;28;20192;-70
2021/04/22 08:29:27;;;;;;;4.50;1.90;;;11.10;58.20;;;;;;5082475;28;20232;-72
2021/04/22 08:31:55;;;;;;;6.87;2.30;;;11.00;58.50;;;;;;5085327;28;20196;-71
2021/04/22 08:34:25;;;;;;;6.43;2.50;;;11.10;58.20;;;;;;5076013;28;20205;-71
2021/04/22 08:36:51;;;;;;;5.90;2.43;;;11.10;57.70;;;;;;5088074;28;20593;-70
2021/04/22 08:39:18;;;;;;;7.83;2.30;;;11.20;57.50;;;;;;5093049;28;20254;-72
2021/04/22 08:41:45;;;;;;;4.40;2.30;;;11.20;56.70;;;;;;5086379;28;20649;-72
2021/04/22 08:44:12;;;;;;;5.67;2.00;;;11.20;56.70;;;;;;5091726;28;20258;-71
2021/04/22 08:46:40;;;;;;;4.67;2.27;;;11.20;56.20;;;;;;5092595;28;20209;-72
2021/04/22 08:49:07;;;;;;;6.20;2.50;;;11.20;55.40;;;;;;5092230;28;20229;-70
2021/04/22 08:51:34;;;;;;;6.63;2.20;;;11.30;55.20;;;;;;5095049;28;20660;-68
2021/04/22 08:54:03;;;;;;;7.30;2.10;;;11.40;53.90;;;;;;5093942;28;20567;-70
2021/04/22 08:56:33;;;;;;;7.93;2.00;;;11.40;53.40;;;;;;5091913;28;20216;-69
2021/04/22 08:58:59;;;;;;;8.87;2.57;;;11.50;53.50;;;;;;5088559;28;20686;-68
2021/04/22 09:01:26;;;;;;;7.47;2.40;;;11.70;53.00;;;;;;5091428;28;20208;-69
2021/04/22 09:03:55;;;;;;;9.03;2.70;;;11.90;52.00;;;;;;5085474;28;20458;-68
2021/04/22 09:06:22;;;;;;;11.77;3.07;;;12.00;51.40;;;;;;5086217;28;20201;-69
2021/04/22 09:08:51;;;;;;;6.83;2.70;;;12.00;51.00;;;;;;5092909;28;20205;-69
2021/04/22 09:11:20;;;;;;;7.07;2.00;;;12.20;52.20;;;;;;5087385;28;20208;-68
2021/04/22 09:13:48;;;;;;;9.20;2.60;;;12.50;51.90;;;;;;5087953;28;20350;-69
2021/04/22 09:16:17;;;;;;;6.73;2.13;;;12.70;51.10;;;;;;5093127;28;20200;-69
2021/04/22 09:18:45;;;;;;;7.13;2.50;;;12.90;50.40;;;;;;5089013;28;20257;-68
2021/04/22 09:21:20;;;;;;;7.30;2.73;;;12.90;50.10;;;;;;5086939;28;20227;-70
2021/04/22 09:23:59;;;;;;;5.43;2.10;;;13.00;48.60;;;;;;5081500;28;20563;-69
2021/04/22 09:26:36;;;;;;;9.17;2.73;;;13.00;48.30;;;;;;5087548;28;20213;-69
2021/04/22 09:29:04;;;;;;;10.40;2.50;;;13.20;49.90;;;;;;5085429;28;20213;-70
2021/04/22 09:31:31;;;;;;;4.33;2.30;;;13.40;48.30;;;;;;5080393;28;20307;-70
2021/04/22 09:34:08;;;;;;;9.23;2.33;;;13.50;48.40;;;;;;5085770;28;20212;-69
2021/04/22 09:36:41;;;;;;;9.10;2.80;;;13.70;48.50;;;;;;5085156;28;20233;-69
2021/04/22 09:39:08;;;;;;;6.47;2.63;;;13.90;48.20;;;;;;5087796;28;20619;-69
2021/04/22 09:41:34;;;;;;;6.93;2.73;;;14.10;48.00;;;;;;5091515;28;20208;-69
2021/04/22 09:44:07;;;;;;;9.57;2.90;;;14.20;47.80;;;;;;5083586;28;20201;-69
2021/04/22 09:46:34;;;;;;;8.50;2.67;;;14.30;48.20;;;;;;5081419;28;20304;-69
2021/04/22 09:49:07;;;;;;;10.73;2.67;;;14.50;48.00;;;;;;5089971;28;20332;-69
2021/04/22 09:51:33;;;;;;;7.00;2.00;;;14.50;47.60;;;;;;5076115;28;20297;-69
2021/04/22 09:54:10;;;;;;;11.10;2.57;;;14.30;47.20;;;;;;5079181;28;20297;-69
2021/04/22 09:56:48;;;;;;;7.53;2.27;;;14.00;48.20;;;;;;5083633;28;20204;-70
2021/04/22 09:59:18;;;;;;;10.33;2.90;;;13.90;49.10;;;;;;5083002;28;20299;-71
2021/04/22 10:01:58;;;;;;;5.83;2.17;;;13.80;48.90;;;;;;5089589;28;20208;-69
2021/04/22 10:04:31;;;;;;;7.67;2.20;;;14.00;48.20;;;;;;5089112;28;20267;-68
2021/04/22 10:06:57;;;;;;;7.47;2.43;;;14.10;48.30;;;;;;5084338;28;20205;-70
2021/04/22 10:09:31;;;;;;;6.13;2.50;;;14.40;47.80;;;;;;5078646;28;20239;-70
2021/04/22 10:11:58;;;;;;;7.03;2.43;;;14.50;46.90;;;;;;5077631;28;20236;-71
2021/04/22 10:14:32;;;;;;;6.87;2.90;;;14.50;46.30;;;;;;5080499;28;20678;-70
2021/04/22 10:16:59;;;;;;;6.50;2.30;;;14.80;47.20;;;;;;5087591;28;20287;-70
2021/04/22 10:19:26;;;;;;;5.83;2.40;;;15.00;47.10;;;;;;5083899;28;20212;-70
2021/04/22 10:21:55;;;;;;;7.07;2.37;;;15.20;46.40;;;;;;5087431;28;20834;-69
2021/04/22 10:24:26;;;;;;;7.23;2.03;;;15.20;45.80;;;;;;5085989;28;20223;-70
2021/04/22 10:26:59;;;;;;;9.80;2.37;;;15.20;45.60;;;;;;5088565;28;20209;-70
2021/04/22 10:29:26;;;;;;;5.00;2.03;;;15.30;45.80;;;;;;5084979;28;20323;-71
2021/04/22 10:31:54;;;;;;;7.93;2.40;;;15.40;45.50;;;;;;5076599;28;20208;-70
2021/04/22 10:34:21;;;;;;;6.10;2.50;;;15.50;45.20;;;;;;5083201;28;20229;-70
2021/04/22 10:36:49;;;;;;;7.70;2.23;;;15.30;45.00;;;;;;5087246;28;20300;-71
2021/04/22 10:39:16;;;;;;;4.00;1.77;;;15.30;45.20;;;;;;5087922;28;20197;-70
2021/04/22 10:41:43;;;;;;;7.40;2.37;;;15.30;45.20;;;;;;5088093;28;20213;-70
2021/04/22 10:44:12;;;;;;;5.17;2.20;;;15.20;44.70;;;;;;5080800;28;20307;-70
2021/04/22 10:46:40;;;;;;;5.50;2.23;;;15.20;45.30;;;;;;5080064;28;20297;-70
2021/04/22 10:49:07;;;;;;;6.30;2.27;;;15.20;45.90;;;;;;5086265;28;20432;-68
2021/04/22 10:51:36;;;;;;;8.03;2.30;;;15.30;44.60;;;;;;5084259;28;20299;-70
2021/04/22 10:54:03;;;;;;;5.20;1.97;;;15.40;44.80;;;;;;5087184;28;20213;-70
2021/04/22 10:56:30;;;;;;;8.93;2.30;;;15.60;44.50;;;;;;5088673;28;20215;-70
2021/04/22 10:58:57;;;;;;;7.00;1.80;;;15.60;44.50;;;;;;5080077;28;20206;-70
2021/04/22 11:01:37;;;;;;;7.97;2.37;;;15.60;44.70;;;;;;5083867;28;20213;-71
2021/04/22 11:04:06;;;;;;;6.63;2.00;;;15.60;45.10;;;;;;5086622;28;20200;-69
2021/04/22 11:06:35;;;;;;;7.80;2.17;;;15.70;45.30;;;;;;5085778;28;20238;-72
2021/04/22 11:09:12;;;;;;;4.77;2.10;;;15.80;44.70;;;;;;5084982;28;20205;-72
2021/04/22 11:11:39;;;;;;;7.43;2.17;;;16.00;44.20;;;;;;5071670;28;20747;-74
2021/04/22 11:14:09;;;;;;;3.83;1.87;;;15.90;44.40;;;;;;5074101;28;20221;-72
2021/04/22 11:16:39;;;;;;;5.93;2.43;;;16.00;43.80;;;;;;5073878;28;20224;-73
2021/04/22 11:19:15;;;;;;;5.83;2.47;;;16.00;43.90;;;;;;5074581;28;20216;-72
2021/04/22 11:21:50;;;;;;;7.47;2.50;;;16.40;44.20;;;;;;5072635;28;20212;-73
2021/04/22 11:24:27;;;;;;;7.57;2.30;;;16.60;43.50;;;;;;5075147;28;20293;-74
2021/04/22 11:27:00;;;;;;;8.37;2.47;;;16.80;43.20;;;;;;5075196;28;20572;-74
2021/04/22 11:29:37;;;;;;;7.77;2.53;;;17.00;43.50;;;;;;5089085;28;20247;-75
2021/04/22 11:32:25;;;;;;;4.47;2.23;;;17.10;43.00;;;;;;5069801;28;20669;-74
2021/04/22 11:34:54;;;;;;;9.07;2.73;;;16.90;42.90;;;;;;5080105;28;20216;-76
2021/04/22 11:37:24;;;;;;;6.30;2.43;;;16.80;43.00;;;;;;5077173;28;20205;-74
2021/04/22 11:39:51;;;;;;;13.60;2.67;;;16.80;43.50;;;;;;5076462;28;20254;-72
2021/04/22 11:42:18;;;;;;;4.83;2.30;;;16.90;44.00;;;;;;5079693;28;20284;-74
2021/04/22 11:44:49;;;;;;;5.37;2.60;;;16.90;43.80;;;;;;5064120;28;20300;-75
2021/04/22 11:47:18;;;;;;;6.93;2.57;;;16.80;43.10;;;;;;5074488;28;20263;-72
2021/04/22 11:49:46;;;;;;;5.80;2.13;;;16.70;43.70;;;;;;5074737;28;20264;-74
2021/04/22 11:52:19;;;;;;;9.00;3.00;;;16.80;43.20;;;;;;5080065;28;20204;-73
2021/04/22 11:54:47;;;;;;;10.00;2.80;;;16.70;42.80;;;;;;5074313;28;20205;-74
2021/04/22 11:57:15;;;;;;;9.87;2.77;;;16.70;42.70;;;;;;5073677;28;20315;-75
2021/04/22 11:59:42;;;;;;;7.60;2.67;;;16.70;43.70;;;;;;5077342;28;20280;-74
2021/04/22 12:02:10;;;;;;;4.67;2.17;;;16.70;43.70;;;;;;5075762;28;20299;-72
2021/04/22 12:04:42;;;;;;;7.13;2.90;;;16.80;43.30;;;;;;5074471;28;20220;-73
2021/04/22 12:07:11;;;;;;;9.27;3.03;;;16.90;43.90;;;;;;5075055;28;20288;-76
2021/04/22 12:09:38;;;;;;;4.50;2.77;;;17.00;42.80;;;;;;5076640;28;20232;-72
2021/04/22 12:12:14;;;;;;;6.13;2.70;;;16.90;42.50;;;;;;5066105;28;20630;-73
2021/04/22 12:14:42;;;;;;;8.17;2.60;;;16.70;42.70;;;;;;5071732;28;20241;-76
2021/04/22 12:17:26;;;;;;;7.57;2.83;;;16.60;42.70;;;;;;5076612;28;20211;-75
2021/04/22 12:19:56;;;;;;;8.77;2.67;;;16.60;43.20;;;;;;5087248;28;20193;-77
2021/04/22 12:22:41;;;;;;;8.00;2.80;;;16.70;43.30;;;;;;5079378;28;20611;-75
2021/04/22 12:25:14;;;;;;;7.93;2.63;;;16.50;43.10;;;;;;5077491;28;20288;-75
2021/04/22 12:27:46;;;;;;;3.97;2.03;;;16.20;42.80;;;;;;5071285;28;20213;-77
2021/04/22 12:30:23;;;;;;;5.00;2.07;;;16.00;43.70;;;;;;5071282;28;20229;-74
2021/04/22 12:32:55;;;;;;;4.33;2.10;;;16.00;43.10;;;;;;5073744;28;20253;-73
2021/04/22 12:35:24;;;;;;;4.33;2.13;;;16.10;42.20;;;;;;5075384;28;20201;-73
2021/04/22 12:37:51;;;;;;;3.47;1.87;;;16.20;41.90;;;;;;5073610;28;20293;-76
2021/04/22 12:40:18;;;;;;;6.63;2.47;;;16.20;41.90;;;;;;5074154;28;20206;-74
2021/04/22 12:42:50;;;;;;;4.57;2.20;;;16.30;42.00;;;;;;5068049;28;20236;-74
2021/04/22 12:45:20;;;;;;;3.53;2.03;;;16.20;41.80;;;;;;5074705;28;20233;-70
2021/04/22 12:47:50;;;;;;;3.87;1.87;;;16.00;41.40;;;;;;5075548;28;20202;-71
2021/04/22 12:50:32;;;;;;;7.07;2.23;;;15.80;42.50;;;;;;5076897;28;20397;-72
2021/04/22 12:53:10;;;;;;;4.60;2.43;;;15.70;42.30;;;;;;5079942;28;20209;-73